Time;durP1;ratioP1;P1;durP2;ratioP2;P2;SDS_P1;SDS_P2;PMS_P1;PMS_P2;Temp;Humidity;BMP_temperature;BMP_pressure;BME280_temperature;BME280_humidity;BME280_pressure;Samples;Min_cycle;Max_cycle;Signal;HPM_P1;HPM_P2
2022/09/12 00:00:30;;;;;;;17.80;15.70;;;16.30;99.90;;;;;;5057414;28;20111;-78
2022/09/12 00:02:57;;;;;;;17.70;15.40;;;16.30;99.90;;;;;;5056443;28;20036;-78
2022/09/12 00:05:23;;;;;;;18.60;16.73;;;16.30;99.90;;;;;;5057762;28;20049;-78
2022/09/12 00:07:49;;;;;;;18.30;16.58;;;16.20;99.90;;;;;;5056430;28;20481;-78
2022/09/12 00:10:16;;;;;;;18.58;16.90;;;16.20;99.90;;;;;;5061781;28;20048;-78
2022/09/12 00:12:41;;;;;;;17.85;16.33;;;16.20;99.90;;;;;;5061621;28;20031;-79
2022/09/12 00:15:10;;;;;;;24.02;17.98;;;16.20;99.90;;;;;;5061959;28;20028;-78
2022/09/12 00:17:37;;;;;;;18.70;16.50;;;16.10;99.90;;;;;;5060740;28;20028;-78
2022/09/12 00:20:06;;;;;;;18.13;16.38;;;16.10;99.90;;;;;;5062025;28;20053;-79
2022/09/12 00:22:31;;;;;;;19.52;17.73;;;16.10;99.90;;;;;;5061773;28;20074;-78
2022/09/12 00:24:57;;;;;;;19.63;17.45;;;16.10;99.90;;;;;;5059648;28;20103;-80
2022/09/12 00:27:23;;;;;;;20.40;18.17;;;16.10;99.90;;;;;;5064966;28;20187;-79
2022/09/12 00:29:48;;;;;;;18.45;16.65;;;16.10;99.90;;;;;;5061374;28;20033;-78
2022/09/12 00:32:14;;;;;;;19.50;17.13;;;16.10;99.90;;;;;;5060574;28;20075;-79
2022/09/12 00:34:40;;;;;;;18.65;16.95;;;16.00;99.90;;;;;;5062209;28;20033;-79
2022/09/12 00:37:05;;;;;;;19.40;17.38;;;16.00;99.90;;;;;;5059680;28;20062;-80
2022/09/12 00:39:31;;;;;;;22.23;19.67;;;16.00;99.90;;;;;;5060260;28;20029;-80
2022/09/12 00:41:56;;;;;;;20.90;18.33;;;16.00;99.90;;;;;;5059975;28;20017;-79
2022/09/12 00:44:22;;;;;;;20.75;18.83;;;16.00;99.90;;;;;;5053008;28;20469;-79
2022/09/12 00:47:00;;;;;;;19.08;17.17;;;15.90;99.90;;;;;;5053844;28;20170;-79
2022/09/12 00:49:29;;;;;;;20.15;18.13;;;15.90;99.90;;;;;;5055541;28;20059;-79
2022/09/12 00:52:02;;;;;;;19.08;17.20;;;15.90;99.90;;;;;;5052760;28;20036;-78
2022/09/12 00:54:31;;;;;;;19.20;16.98;;;15.90;99.90;;;;;;5053910;28;20048;-79
2022/09/12 00:57:01;;;;;;;18.33;16.58;;;15.80;99.90;;;;;;5054678;28;20028;-78
2022/09/12 00:59:33;;;;;;;16.70;14.93;;;15.80;99.90;;;;;;5054158;28;20468;-79
2022/09/12 01:01:58;;;;;;;18.33;16.48;;;15.80;99.90;;;;;;5057845;28;20033;-78
2022/09/12 01:04:27;;;;;;;18.20;16.27;;;15.80;99.90;;;;;;5057313;28;20018;-79
2022/09/12 01:06:57;;;;;;;17.90;16.00;;;15.80;99.90;;;;;;5057847;28;20037;-79
2022/09/12 01:09:24;;;;;;;18.55;16.80;;;15.70;99.90;;;;;;5057230;28;20070;-79
2022/09/12 01:11:52;;;;;;;19.40;17.40;;;15.70;99.90;;;;;;5056556;28;20037;-79
2022/09/12 01:14:18;;;;;;;18.50;16.70;;;15.60;99.90;;;;;;5057131;28;20025;-79
2022/09/12 01:16:48;;;;;;;17.77;16.08;;;15.60;99.90;;;;;;5057094;28;20072;-79
2022/09/12 01:19:48;;;;;;;18.87;17.13;;;15.60;99.90;;;;;;5057415;28;20506;-78
2022/09/12 01:22:42;;;;;;;18.65;16.77;;;15.60;99.90;;;;;;5059764;28;20298;-78
2022/09/12 01:25:36;;;;;;;17.90;16.13;;;15.60;99.90;;;;;;5059292;28;20039;-79
2022/09/12 01:28:24;;;;;;;20.27;17.38;;;15.50;99.90;;;;;;5058356;28;20025;-79
2022/09/12 01:31:19;;;;;;;20.35;18.08;;;15.50;99.90;;;;;;5057747;28;20111;-78
2022/09/12 01:34:08;;;;;;;25.67;18.15;;;15.50;99.90;;;;;;5042160;28;20036;-78
2022/09/12 01:36:57;;;;;;;19.50;17.50;;;15.50;99.90;;;;;;5051614;28;20055;-79
2022/09/12 01:39:50;;;;;;;17.63;15.82;;;15.40;99.90;;;;;;5057643;28;20100;-79
2022/09/12 01:42:51;;;;;;;20.70;18.52;;;15.40;99.90;;;;;;5057253;28;20028;-79
2022/09/12 01:45:42;;;;;;;20.20;17.88;;;15.40;99.90;;;;;;5041210;28;20408;-79
2022/09/12 01:48:18;;;;;;;22.45;19.02;;;15.40;99.90;;;;;;5057142;28;20075;-79
2022/09/12 01:50:53;;;;;;;20.90;18.80;;;15.50;99.90;;;;;;5057468;28;20106;-78
2022/09/12 01:53:28;;;;;;;20.63;18.40;;;15.40;99.90;;;;;;5056818;28;20021;-79
2022/09/12 01:56:06;;;;;;;20.45;18.17;;;15.40;99.90;;;;;;5056548;28;20025;-78
2022/09/12 01:58:49;;;;;;;19.00;17.20;;;15.40;99.90;;;;;;5057330;28;20048;-79
2022/09/12 02:01:28;;;;;;;20.08;17.80;;;15.70;99.90;;;;;;5056415;28;20032;-79
2022/09/12 02:04:29;;;;;;;21.58;19.27;;;15.40;99.90;;;;;;5056784;28;20411;-79
2022/09/12 02:07:29;;;;;;;20.75;18.70;;;15.40;99.90;;;;;;5014821;28;20057;-78
2022/09/12 02:10:18;;;;;;;20.02;17.92;;;15.40;99.90;;;;;;5056067;28;20044;-77
2022/09/12 02:13:35;;;;;;;23.92;18.55;;;15.30;99.90;;;;;;5056067;28;20021;-78
2022/09/12 02:16:24;;;;;;;22.95;19.20;;;15.30;99.90;;;;;;5038045;28;20029;-79
2022/09/12 02:18:54;;;;;;;21.63;19.33;;;15.30;99.90;;;;;;5056306;28;20025;-79
2022/09/12 02:21:22;;;;;;;22.97;20.20;;;15.30;99.90;;;;;;5056425;28;20025;-79
2022/09/12 02:23:56;;;;;;;21.83;19.48;;;15.20;99.90;;;;;;5055254;28;20045;-79
2022/09/12 02:26:35;;;;;;;22.15;19.85;;;15.30;99.90;;;;;;5056717;28;20029;-79
2022/09/12 02:29:02;;;;;;;27.65;21.15;;;15.30;99.90;;;;;;5055757;28;20028;-78
2022/09/12 02:31:48;;;;;;;22.70;20.27;;;15.30;99.90;;;;;;5055937;28;20080;-79
2022/09/12 02:34:20;;;;;;;27.30;21.55;;;15.20;99.90;;;;;;5056125;28;20086;-79
2022/09/12 02:37:07;;;;;;;23.42;20.95;;;15.20;99.90;;;;;;5055213;28;20025;-79
2022/09/12 02:39:33;;;;;;;23.65;21.10;;;15.20;99.90;;;;;;5056683;28;20029;-78
2022/09/12 02:42:01;;;;;;;23.63;21.10;;;15.20;99.90;;;;;;5056016;28;20381;-78
2022/09/12 02:44:29;;;;;;;26.40;23.50;;;15.20;99.90;;;;;;5055192;28;20033;-79
2022/09/12 02:47:04;;;;;;;25.35;22.10;;;15.20;99.90;;;;;;5056239;28;20029;-78
2022/09/12 02:49:29;;;;;;;24.98;22.23;;;15.10;99.90;;;;;;5061534;28;20025;-78
2022/09/12 02:51:56;;;;;;;27.80;21.38;;;15.20;99.90;;;;;;5073254;28;20056;-77
2022/09/12 02:54:22;;;;;;;23.63;20.95;;;15.20;99.90;;;;;;5074328;28;20093;-78
2022/09/12 02:56:48;;;;;;;24.80;22.20;;;15.20;99.90;;;;;;5074579;28;20040;-77
2022/09/12 02:59:18;;;;;;;25.60;22.45;;;15.10;99.90;;;;;;5071874;28;20017;-78
2022/09/12 03:02:26;;;;;;;37.15;22.50;;;15.10;99.90;;;;;;5078020;28;20066;-78
2022/09/12 03:05:14;;;;;;;23.50;21.13;;;15.10;99.90;;;;;;5065037;28;20068;-79
2022/09/12 03:08:14;;;;;;;25.65;21.83;;;15.10;99.90;;;;;;5055748;28;20033;-79
2022/09/12 03:11:12;;;;;;;26.98;20.85;;;15.10;99.90;;;;;;5055162;28;20029;-79
2022/09/12 03:14:02;;;;;;;25.52;22.33;;;15.00;99.90;;;;;;5055555;28;20081;-78
2022/09/12 03:16:52;;;;;;;25.50;22.10;;;15.10;99.90;;;;;;5055293;28;20462;-78
2022/09/12 03:19:24;;;;;;;24.60;21.92;;;15.10;99.90;;;;;;5055151;28;20035;-78
2022/09/12 03:21:59;;;;;;;25.98;21.67;;;15.10;99.90;;;;;;5055647;28;20029;-78
2022/09/12 03:24:33;;;;;;;27.13;22.58;;;15.00;99.90;;;;;;5054982;28;20041;-77
2022/09/12 03:27:21;;;;;;;25.25;21.67;;;15.10;99.90;;;;;;5055469;28;20116;-78
2022/09/12 03:29:48;;;;;;;27.15;21.98;;;15.10;99.90;;;;;;5055306;28;20033;-78
2022/09/12 03:32:14;;;;;;;25.88;23.08;;;15.10;99.90;;;;;;5054297;28;20071;-79
2022/09/12 03:34:40;;;;;;;30.77;23.50;;;15.10;99.90;;;;;;5054595;28;20044;-78
2022/09/12 03:37:06;;;;;;;26.55;22.60;;;15.10;99.90;;;;;;5055018;28;20025;-78
2022/09/12 03:39:32;;;;;;;27.35;22.38;;;15.10;99.90;;;;;;5055564;28;20365;-77
2022/09/12 03:41:57;;;;;;;28.77;23.77;;;15.20;99.90;;;;;;5057964;28;20039;-78
2022/09/12 03:44:23;;;;;;;28.48;22.90;;;15.20;99.90;;;;;;5054625;28;20416;-77
2022/09/12 03:46:49;;;;;;;30.08;23.48;;;15.20;99.90;;;;;;5053812;28;20527;-77
2022/09/12 03:49:16;;;;;;;30.42;23.77;;;15.20;99.90;;;;;;5055217;28;20095;-78
2022/09/12 03:51:42;;;;;;;29.02;23.83;;;15.60;99.90;;;;;;5058388;28;20033;-78
2022/09/12 03:54:08;;;;;;;27.25;23.67;;;15.20;99.90;;;;;;5054803;28;20139;-79
2022/09/12 03:56:36;;;;;;;24.75;22.13;;;15.20;99.90;;;;;;5055139;28;20087;-79
2022/09/12 03:59:05;;;;;;;30.67;24.00;;;15.10;99.90;;;;;;5054930;28;20412;-79
2022/09/12 04:01:31;;;;;;;30.20;23.88;;;15.20;99.90;;;;;;5053802;28;20468;-79
2022/09/12 04:03:57;;;;;;;27.88;24.20;;;15.20;99.90;;;;;;5054235;28;20115;-79
2022/09/12 04:06:22;;;;;;;27.30;22.35;;;15.20;99.90;;;;;;5055189;28;20112;-79
2022/09/12 04:08:50;;;;;;;31.30;24.83;;;15.20;99.90;;;;;;5054320;28;20098;-79
2022/09/12 04:11:17;;;;;;;28.60;23.52;;;15.20;99.90;;;;;;5057553;28;20036;-78
2022/09/12 04:13:44;;;;;;;30.52;23.63;;;15.20;99.90;;;;;;5054298;28;20473;-79
2022/09/12 04:16:11;;;;;;;31.17;23.63;;;15.20;99.90;;;;;;5053469;28;20021;-79
2022/09/12 04:18:37;;;;;;;31.95;23.77;;;15.20;99.90;;;;;;5054542;28;20022;-79
2022/09/12 04:21:07;;;;;;;30.90;24.63;;;15.20;99.90;;;;;;5054732;28;20031;-79
2022/09/12 04:23:33;;;;;;;29.45;24.55;;;15.20;99.90;;;;;;5053242;28;20053;-79
2022/09/12 04:26:00;;;;;;;29.73;24.27;;;15.10;99.90;;;;;;5054169;28;20100;-79
2022/09/12 04:28:31;;;;;;;29.50;24.35;;;15.20;99.90;;;;;;5054072;28;20051;-79
2022/09/12 04:31:06;;;;;;;30.60;22.52;;;15.20;99.90;;;;;;5053977;28;20428;-80
2022/09/12 04:33:35;;;;;;;29.48;23.77;;;15.20;99.90;;;;;;5054538;28;20028;-79
2022/09/12 04:36:15;;;;;;;28.15;23.50;;;15.20;99.90;;;;;;5059487;28;20032;-79
2022/09/12 04:38:44;;;;;;;30.23;23.52;;;15.20;99.90;;;;;;5060235;28;20071;-78
2022/09/12 04:41:33;;;;;;;28.73;23.50;;;15.20;99.90;;;;;;5060144;28;20476;-79
2022/09/12 04:44:02;;;;;;;26.13;22.20;;;15.10;99.90;;;;;;5059521;28;20044;-78
2022/09/12 04:46:32;;;;;;;33.20;24.08;;;15.10;99.90;;;;;;5060245;28;20028;-79
2022/09/12 04:48:58;;;;;;;31.65;23.60;;;15.10;99.90;;;;;;5060136;28;20160;-78
2022/09/12 04:51:30;;;;;;;32.88;24.52;;;15.30;99.90;;;;;;5059472;28;20123;-79
2022/09/12 04:53:58;;;;;;;31.55;24.77;;;15.10;99.90;;;;;;5060334;28;20361;-78
2022/09/12 04:56:24;;;;;;;27.67;23.48;;;15.10;99.90;;;;;;5060017;28;20178;-79
2022/09/12 04:58:50;;;;;;;28.35;24.50;;;15.00;99.90;;;;;;5059374;28;20021;-78
2022/09/12 05:01:20;;;;;;;37.67;26.15;;;15.00;99.90;;;;;;5059868;28;20495;-78
2022/09/12 05:03:47;;;;;;;28.05;22.55;;;15.00;99.90;;;;;;5059544;28;20579;-79
2022/09/12 05:06:15;;;;;;;29.67;24.83;;;15.00;99.90;;;;;;5060122;28;20035;-80
2022/09/12 05:08:41;;;;;;;28.45;23.63;;;15.00;99.90;;;;;;5059988;28;20025;-79
2022/09/12 05:11:12;;;;;;;34.47;25.17;;;14.90;99.90;;;;;;5058743;28;20032;-79
2022/09/12 05:13:38;;;;;;;32.75;25.25;;;14.90;99.90;;;;;;5059769;28;20049;-79
2022/09/12 05:16:05;;;;;;;30.83;25.05;;;14.90;99.90;;;;;;5059951;28;20037;-79
2022/09/12 05:18:32;;;;;;;32.03;24.65;;;14.90;99.90;;;;;;5059442;28;20465;-79
2022/09/12 05:20:59;;;;;;;35.40;25.23;;;14.90;99.90;;;;;;5059912;28;20029;-79
2022/09/12 05:23:26;;;;;;;31.58;25.00;;;14.90;99.90;;;;;;5059485;28;20053;-79
2022/09/12 05:25:53;;;;;;;33.03;25.77;;;14.90;99.90;;;;;;5057656;28;20366;-78
2022/09/12 05:28:20;;;;;;;33.58;25.67;;;14.80;99.90;;;;;;5060041;28;20029;-79
2022/09/12 05:30:46;;;;;;;38.03;25.52;;;14.90;99.90;;;;;;5059660;28;20091;-79
2022/09/12 05:33:18;;;;;;;32.50;25.25;;;14.80;99.90;;;;;;5059069;28;20063;-79
2022/09/12 05:35:51;;;;;;;32.42;25.08;;;14.80;99.90;;;;;;5059682;28;20024;-80
2022/09/12 05:38:16;;;;;;;34.85;24.88;;;14.80;99.90;;;;;;5059664;28;20045;-79
2022/09/12 05:40:42;;;;;;;35.25;24.42;;;14.80;99.90;;;;;;5059022;28;20064;-80
2022/09/12 05:43:07;;;;;;;33.40;24.83;;;14.70;99.90;;;;;;5060047;28;20021;-79
2022/09/12 05:45:33;;;;;;;33.10;25.60;;;14.80;99.90;;;;;;5058444;28;20047;-80
2022/09/12 05:47:59;;;;;;;36.90;25.60;;;14.80;99.90;;;;;;5055607;28;20083;-80
2022/09/12 05:50:24;;;;;;;34.58;26.05;;;14.80;99.90;;;;;;5056433;28;20163;-78
2022/09/12 05:52:50;;;;;;;39.28;28.30;;;14.80;99.90;;;;;;5055546;28;20023;-78
2022/09/12 05:55:17;;;;;;;33.15;25.42;;;14.80;99.90;;;;;;5056690;28;20032;-79
2022/09/12 05:57:45;;;;;;;33.78;26.88;;;14.80;99.90;;;;;;5056512;28;20025;-79
2022/09/12 06:00:13;;;;;;;34.38;26.83;;;14.80;99.90;;;;;;5055668;28;20617;-78
2022/09/12 06:02:39;;;;;;;33.97;26.02;;;14.80;99.90;;;;;;5056688;28;20118;-79
2022/09/12 06:05:05;;;;;;;37.67;26.02;;;14.80;99.90;;;;;;5056611;28;20594;-79
2022/09/12 06:07:31;;;;;;;37.15;27.73;;;14.80;99.90;;;;;;5055508;28;20021;-78
2022/09/12 06:09:58;;;;;;;35.80;26.45;;;14.80;99.90;;;;;;5058692;28;20207;-80
2022/09/12 06:12:25;;;;;;;29.20;25.42;;;14.90;99.90;;;;;;5057224;28;20086;-79
2022/09/12 06:14:51;;;;;;;39.25;28.38;;;14.80;99.90;;;;;;5055486;28;20393;-80
2022/09/12 06:17:17;;;;;;;39.10;27.02;;;14.90;99.90;;;;;;5056675;28;20017;-78
2022/09/12 06:19:44;;;;;;;38.17;27.23;;;15.00;99.90;;;;;;5057201;28;20037;-80
2022/09/12 06:22:10;;;;;;;37.40;27.25;;;15.00;99.90;;;;;;5056103;28;20036;-80
2022/09/12 06:24:35;;;;;;;35.00;28.02;;;15.10;99.90;;;;;;5057422;28;20020;-79
2022/09/12 06:27:01;;;;;;;32.85;27.10;;;15.10;99.90;;;;;;5056235;28;20017;-79
2022/09/12 06:29:27;;;;;;;41.92;27.58;;;15.20;99.90;;;;;;5054833;28;20017;-79
2022/09/12 06:31:53;;;;;;;39.05;28.27;;;15.20;99.90;;;;;;5056331;28;20033;-79
2022/09/12 06:34:19;;;;;;;35.08;26.58;;;15.30;99.90;;;;;;5056485;28;20457;-79
2022/09/12 06:36:48;;;;;;;39.58;28.75;;;15.40;99.90;;;;;;5057718;28;20190;-80
2022/09/12 06:39:19;;;;;;;36.75;28.13;;;15.50;99.90;;;;;;5055578;28;20021;-79
2022/09/12 06:41:45;;;;;;;39.97;28.13;;;15.60;99.90;;;;;;5055104;28;20511;-79
2022/09/12 06:44:20;;;;;;;32.85;26.95;;;15.60;99.90;;;;;;5054534;28;20039;-79
2022/09/12 06:46:49;;;;;;;37.38;28.60;;;15.70;99.90;;;;;;5055485;28;20025;-79
2022/09/12 06:49:16;;;;;;;32.88;26.58;;;15.80;99.90;;;;;;5054613;28;20032;-79
2022/09/12 06:51:42;;;;;;;33.78;25.10;;;15.80;99.90;;;;;;5055455;28;20119;-79
2022/09/12 06:54:16;;;;;;;34.38;26.35;;;15.90;99.90;;;;;;5055055;28;20449;-78
2022/09/12 06:56:43;;;;;;;31.85;24.42;;;15.90;99.90;;;;;;5054892;28;20040;-79
2022/09/12 06:59:09;;;;;;;36.47;27.45;;;16.00;99.90;;;;;;5056041;28;20100;-78
2022/09/12 07:01:34;;;;;;;32.80;25.40;;;16.10;99.90;;;;;;5063880;28;20457;-77
2022/09/12 07:04:02;;;;;;;33.58;26.63;;;16.10;99.90;;;;;;5062545;28;20040;-77
2022/09/12 07:06:30;;;;;;;30.15;24.23;;;16.20;99.90;;;;;;5063722;28;20021;-78
2022/09/12 07:09:02;;;;;;;32.30;25.58;;;16.30;99.90;;;;;;5067043;28;20035;-79
2022/09/12 07:11:30;;;;;;;35.67;27.40;;;16.30;99.90;;;;;;5067153;28;20036;-77
2022/09/12 07:13:58;;;;;;;34.20;27.83;;;16.40;99.90;;;;;;5072675;28;20051;-77
2022/09/12 07:16:24;;;;;;;34.33;25.95;;;17.30;99.90;;;;;;5074963;28;20029;-78
2022/09/12 07:19:02;;;;;;;31.88;25.38;;;16.50;99.90;;;;;;5060378;28;20037;-76
2022/09/12 07:21:28;;;;;;;31.98;26.38;;;16.60;99.90;;;;;;5044934;28;20492;-77
2022/09/12 07:23:56;;;;;;;33.45;26.38;;;16.60;99.90;;;;;;5046237;28;20405;-76
2022/09/12 07:26:25;;;;;;;31.35;26.02;;;16.60;99.90;;;;;;5040886;28;20485;-77
2022/09/12 07:28:53;;;;;;;33.72;25.67;;;16.70;99.90;;;;;;5059690;28;20096;-77
2022/09/12 07:31:20;;;;;;;37.50;25.77;;;16.70;99.90;;;;;;5053474;28;20033;-78
2022/09/12 07:33:46;;;;;;;31.30;25.10;;;16.80;99.90;;;;;;5053805;28;20024;-79
2022/09/12 07:36:24;;;;;;;30.90;26.05;;;16.80;99.90;;;;;;5054421;28;20039;-77
2022/09/12 07:38:54;;;;;;;33.40;24.48;;;16.80;99.90;;;;;;5053437;28;20035;-78
2022/09/12 07:41:25;;;;;;;39.50;26.83;;;16.80;99.90;;;;;;5054428;28;20439;-79
2022/09/12 07:43:55;;;;;;;33.50;26.08;;;17.00;99.90;;;;;;5054556;28;20104;-79
2022/09/12 07:46:23;;;;;;;29.27;25.67;;;17.00;99.90;;;;;;5053869;28;20103;-78
2022/09/12 07:48:53;;;;;;;28.92;24.45;;;17.10;99.90;;;;;;5054589;28;20029;-78
2022/09/12 07:51:20;;;;;;;28.85;24.88;;;17.20;99.90;;;;;;5054355;28;20041;-79
2022/09/12 07:53:46;;;;;;;34.05;25.38;;;17.30;99.90;;;;;;5053683;28;20047;-78
2022/09/12 07:56:12;;;;;;;30.83;24.70;;;17.40;99.90;;;;;;5054216;28;20036;-79
2022/09/12 07:58:40;;;;;;;29.45;23.98;;;17.40;99.90;;;;;;5053872;28;20545;-78
2022/09/12 08:01:16;;;;;;;34.80;26.85;;;17.50;99.90;;;;;;5053543;28;20021;-78
2022/09/12 08:03:44;;;;;;;32.40;24.60;;;17.60;99.90;;;;;;5053859;28;20021;-79
2022/09/12 08:06:11;;;;;;;33.55;24.35;;;17.70;99.90;;;;;;5054084;28;20025;-79
2022/09/12 08:08:37;;;;;;;29.23;24.45;;;17.80;99.90;;;;;;5051274;28;20024;-81
2022/09/12 08:11:12;;;;;;;28.15;23.40;;;17.90;99.90;;;;;;5053830;28;20029;-80
2022/09/12 08:13:39;;;;;;;31.77;25.13;;;18.00;99.90;;;;;;5053208;28;20028;-79
2022/09/12 08:16:10;;;;;;;34.72;25.73;;;18.10;99.90;;;;;;5053510;28;20500;-78
2022/09/12 08:18:37;;;;;;;29.95;25.23;;;18.10;99.90;;;;;;5053452;28;20485;-79
2022/09/12 08:21:05;;;;;;;32.03;25.85;;;18.10;99.90;;;;;;5053600;28;20071;-80
2022/09/12 08:23:31;;;;;;;31.13;25.15;;;18.10;99.90;;;;;;5053451;28;20049;-78
2022/09/12 08:26:02;;;;;;;31.10;25.25;;;18.10;99.90;;;;;;5053598;28;20111;-79
2022/09/12 08:28:30;;;;;;;31.20;25.85;;;18.20;99.90;;;;;;5052925;28;20117;-79
2022/09/12 08:31:05;;;;;;;32.33;24.42;;;18.20;99.90;;;;;;5053053;28;20029;-79
2022/09/12 08:33:32;;;;;;;29.85;23.65;;;18.20;99.90;;;;;;5053362;28;20064;-80
2022/09/12 08:36:10;;;;;;;30.88;25.00;;;18.30;99.90;;;;;;5053479;28;20048;-79
2022/09/12 08:38:37;;;;;;;25.65;22.95;;;18.30;99.90;;;;;;5055439;28;20025;-79
2022/09/12 08:41:13;;;;;;;28.92;23.05;;;18.40;99.90;;;;;;5054238;28;20090;-79
2022/09/12 08:44:16;;;;;;;31.85;24.73;;;18.50;99.90;;;;;;5055047;28;20021;-78
2022/09/12 08:47:00;;;;;;;31.27;24.50;;;18.50;99.90;;;;;;5053984;28;20100;-79
2022/09/12 08:49:52;;;;;;;26.17;20.85;;;18.60;99.90;;;;;;5054458;28;20031;-78
2022/09/12 08:52:28;;;;;;;21.98;18.98;;;18.70;99.90;;;;;;5054524;28;20485;-78
2022/09/12 08:54:55;;;;;;;23.63;20.45;;;18.80;99.90;;;;;;5053613;28;20029;-78
2022/09/12 08:57:21;;;;;;;23.67;18.88;;;18.90;99.90;;;;;;5053178;28;20021;-79
2022/09/12 08:59:48;;;;;;;23.30;19.13;;;18.90;99.90;;;;;;5053316;28;20140;-79
2022/09/12 09:02:36;;;;;;;26.70;20.27;;;19.00;99.90;;;;;;5053203;28;20179;-80
2022/09/12 09:05:20;;;;;;;18.05;16.13;;;19.10;99.90;;;;;;5053457;28;20044;-79
2022/09/12 09:08:15;;;;;;;30.05;18.25;;;19.20;99.90;;;;;;5052889;28;20492;-79
2022/09/12 09:11:02;;;;;;;27.80;18.30;;;19.20;99.90;;;;;;5052373;28;20393;-79
2022/09/12 09:16:37;;;;;;;16.73;14.25;;;19.40;99.90;;;;;;5053142;28;20098;-80
2022/09/12 09:19:14;;;;;;;16.45;14.73;;;19.50;99.90;;;;;;5052287;28;20028;-78
2022/09/12 09:21:55;;;;;;;18.90;14.48;;;19.60;99.90;;;;;;5054668;28;20029;-79
2022/09/12 09:24:27;;;;;;;16.70;13.70;;;19.70;99.90;;;;;;5056077;28;20049;-81
2022/09/12 09:27:10;;;;;;;15.18;13.23;;;19.70;99.90;;;;;;5056705;28;20025;-78
2022/09/12 09:29:40;;;;;;;11.82;10.80;;;19.80;99.90;;;;;;5056312;28;20043;-79
2022/09/12 09:32:36;;;;;;;13.50;11.77;;;19.80;99.90;;;;;;5055829;28;20131;-78
2022/09/12 09:35:14;;;;;;;14.98;12.32;;;19.90;99.90;;;;;;5055478;28;20426;-78
2022/09/12 09:37:59;;;;;;;12.88;11.18;;;20.10;99.90;;;;;;5056647;28;20453;-81
2022/09/12 09:40:38;;;;;;;14.65;12.55;;;20.10;99.90;;;;;;5056580;28;20059;-78
2022/09/12 09:43:10;;;;;;;11.20;10.02;;;20.10;99.90;;;;;;5056860;28;20112;-79
2022/09/12 09:45:36;;;;;;;12.68;10.50;;;20.20;99.90;;;;;;5056509;28;20444;-79
2022/09/12 09:48:28;;;;;;;10.10;9.18;;;20.20;99.90;;;;;;5058710;28;20299;-79
2022/09/12 09:50:59;;;;;;;8.45;7.75;;;20.30;99.90;;;;;;5056754;28;20044;-79
2022/09/12 09:53:39;;;;;;;10.13;7.57;;;20.40;99.90;;;;;;5055806;28;20491;-79
2022/09/12 09:56:11;;;;;;;8.65;7.90;;;20.50;99.90;;;;;;5056587;28;20118;-79
2022/09/12 09:58:39;;;;;;;7.93;6.95;;;20.60;99.90;;;;;;5056157;28;20032;-78
2022/09/12 10:01:11;;;;;;;6.28;5.78;;;20.60;99.90;;;;;;5055761;28;20032;-79
2022/09/12 10:03:38;;;;;;;9.02;7.40;;;20.70;99.90;;;;;;5056623;28;20028;-78
2022/09/12 10:06:31;;;;;;;8.07;7.30;;;20.80;99.90;;;;;;5055148;28;20047;-79
2022/09/12 10:09:07;;;;;;;7.28;6.68;;;20.80;99.90;;;;;;5055802;28;20047;-79
2022/09/12 10:11:33;;;;;;;8.52;7.72;;;20.80;99.90;;;;;;5056143;28;20362;-79
2022/09/12 10:14:00;;;;;;;8.23;7.53;;;20.80;99.90;;;;;;5055226;28;20024;-79
2022/09/12 10:16:52;;;;;;;8.60;7.80;;;20.90;99.90;;;;;;5055929;28;20033;-79
2022/09/12 10:19:23;;;;;;;7.20;6.60;;;21.00;99.90;;;;;;5056278;28;20488;-79
2022/09/12 10:21:54;;;;;;;7.22;6.50;;;21.10;99.90;;;;;;5056059;28;20021;-79
2022/09/12 10:24:27;;;;;;;6.05;5.60;;;21.10;99.90;;;;;;5056297;28;20043;-79
2022/09/12 10:26:56;;;;;;;7.70;6.43;;;21.20;99.90;;;;;;5055882;28;20032;-79
2022/09/12 10:29:27;;;;;;;7.35;6.63;;;21.30;99.90;;;;;;5055343;28;20032;-80
2022/09/12 10:31:57;;;;;;;6.70;6.20;;;21.40;99.90;;;;;;5055167;28;20033;-79
2022/09/12 10:34:38;;;;;;;6.40;5.90;;;21.50;99.90;;;;;;5055150;28;20024;-81
2022/09/12 10:37:05;;;;;;;;;;;21.60;99.90;;;;;;5055900;28;20063;-79
2022/09/12 10:39:32;;;;;;;7.32;5.97;;;21.60;99.90;;;;;;5055229;28;19987;-79
2022/09/12 10:41:58;;;;;;;5.65;5.15;;;21.70;99.90;;;;;;5054727;28;20045;-79
2022/09/12 10:44:29;;;;;;;7.05;6.45;;;21.80;99.90;;;;;;5055711;28;20417;-80
2022/09/12 10:46:55;;;;;;;8.90;6.70;;;21.90;99.90;;;;;;5055333;28;20494;-79
2022/09/12 10:49:25;;;;;;;5.85;5.35;;;22.10;99.90;;;;;;5054442;28;20354;-78
2022/09/12 10:51:53;;;;;;;10.45;6.43;;;22.20;99.90;;;;;;5054732;28;20472;-80
2022/09/12 10:54:22;;;;;;;7.57;6.53;;;22.30;99.90;;;;;;5054981;28;20116;-80
2022/09/12 10:57:11;;;;;;;9.70;8.18;;;22.30;99.90;;;;;;5054141;28;20031;-79
2022/09/12 11:00:04;;;;;;;9.65;8.13;;;22.40;99.90;;;;;;5055430;28;20048;-80
2022/09/12 11:02:56;;;;;;;7.60;6.68;;;22.40;99.90;;;;;;5054780;28;20554;-79
2022/09/12 11:05:51;;;;;;;8.38;7.55;;;22.40;99.90;;;;;;5055364;28;20029;-79
2022/09/12 11:08:17;;;;;;;8.13;7.43;;;22.50;99.90;;;;;;5056160;28;20025;-79
2022/09/12 11:10:46;;;;;;;8.38;7.57;;;22.50;99.90;;;;;;5054940;28;20040;-78
2022/09/12 11:13:24;;;;;;;8.35;7.65;;;22.60;99.90;;;;;;5054940;28;20070;-78
2022/09/12 11:16:33;;;;;;;9.20;8.20;;;22.60;99.90;;;;;;5054945;28;20377;-78
2022/09/12 11:19:31;;;;;;;8.70;7.90;;;22.70;99.90;;;;;;5058797;28;20096;-79
2022/09/12 11:22:33;;;;;;;8.27;7.47;;;22.80;99.90;;;;;;5061488;28;20074;-78
2022/09/12 11:25:05;;;;;;;8.48;7.78;;;22.80;99.90;;;;;;5066741;28;20033;-79
2022/09/12 11:27:50;;;;;;;8.25;7.00;;;22.90;99.90;;;;;;5076256;28;20064;-79
2022/09/12 11:30:17;;;;;;;8.32;7.63;;;23.00;99.90;;;;;;5076037;28;20033;-79
2022/09/12 11:33:00;;;;;;;7.90;7.15;;;23.10;99.90;;;;;;5074527;28;20021;-79
2022/09/12 11:35:50;;;;;;;8.73;7.93;;;23.10;99.90;;;;;;5077048;28;20021;-78
2022/09/12 11:38:53;;;;;;;9.68;8.10;;;23.10;99.90;;;;;;5076035;28;20020;-79
2022/09/12 11:41:33;;;;;;;9.15;8.25;;;23.10;99.90;;;;;;5066317;28;20055;-80
2022/09/12 11:44:23;;;;;;;8.45;7.28;;;23.10;99.90;;;;;;5054258;28;20492;-79
2022/09/12 11:46:49;;;;;;;7.10;6.38;;;23.20;99.90;;;;;;5054465;28;20532;-80
2022/09/12 11:49:34;;;;;;;7.18;6.47;;;23.20;99.90;;;;;;5054498;28;20053;-80
2022/09/12 11:52:05;;;;;;;10.13;7.88;;;23.30;99.90;;;;;;5053942;28;20029;-80
2022/09/12 11:54:59;;;;;;;8.55;7.85;;;23.40;99.90;;;;;;5054461;28;20021;-79
2022/09/12 11:57:51;;;;;;;8.57;7.78;;;23.40;99.90;;;;;;5054034;28;20057;-80
2022/09/12 12:00:21;;;;;;;7.72;7.05;;;23.50;99.90;;;;;;5053738;28;20032;-80
2022/09/12 12:03:05;;;;;;;7.75;5.75;;;23.60;99.90;;;;;;5053969;28;20032;-80
2022/09/12 12:05:41;;;;;;;8.05;5.72;;;23.70;99.90;;;;;;5053579;28;20476;-79
2022/09/12 12:08:07;;;;;;;5.90;5.50;;;23.70;99.90;;;;;;5054109;28;20037;-80
2022/09/12 12:10:48;;;;;;;8.02;6.25;;;23.80;99.90;;;;;;5053811;28;20067;-79
2022/09/12 12:13:14;;;;;;;6.15;5.63;;;23.80;99.90;;;;;;5053437;28;20119;-79
2022/09/12 12:16:05;;;;;;;5.43;4.97;;;24.00;99.90;;;;;;5054853;28;20105;-80
2022/09/12 12:18:34;;;;;;;6.55;5.50;;;24.00;99.90;;;;;;5053710;28;20025;-80
2022/09/12 12:21:45;;;;;;;5.22;4.70;;;24.10;99.60;;;;;;5053220;28;20028;-79
2022/09/12 12:24:14;;;;;;;7.82;5.40;;;24.20;99.70;;;;;;5052474;28;20059;-80
2022/09/12 12:26:43;;;;;;;4.93;4.53;;;24.20;99.90;;;;;;5053435;28;20032;-79
2022/09/12 12:29:15;;;;;;;7.80;4.97;;;24.30;99.90;;;;;;5054165;28;20045;-79
2022/09/12 12:32:06;;;;;;;4.80;4.40;;;24.30;99.80;;;;;;5053603;28;20037;-80
2022/09/12 12:34:43;;;;;;;5.28;4.57;;;24.40;99.90;;;;;;5053555;28;20033;-80
2022/09/12 12:37:18;;;;;;;6.70;5.40;;;24.50;99.90;;;;;;5054301;28;20111;-79
2022/09/12 12:39:49;;;;;;;6.22;5.72;;;24.60;99.00;;;;;;5054163;28;20025;-79
2022/09/12 12:42:33;;;;;;;4.43;4.03;;;24.70;98.40;;;;;;5053816;28;20041;-79
2022/09/12 12:45:00;;;;;;;5.03;4.63;;;24.70;98.80;;;;;;5053505;28;20045;-80
2022/09/12 12:47:32;;;;;;;4.93;4.25;;;24.80;98.60;;;;;;5053520;28;20021;-79
2022/09/12 12:50:22;;;;;;;4.72;4.32;;;24.90;98.60;;;;;;5052850;28;20029;-79
2022/09/12 12:52:58;;;;;;;5.70;4.05;;;25.00;98.30;;;;;;5053739;28;20060;-79
2022/09/12 12:55:37;;;;;;;4.28;3.63;;;25.10;98.30;;;;;;5053925;28;20028;-80
2022/09/12 12:58:05;;;;;;;4.57;4.18;;;25.10;98.20;;;;;;5057993;28;20095;-79
2022/09/12 13:00:33;;;;;;;3.28;3.08;;;25.10;97.90;;;;;;5057338;28;20021;-79
2022/09/12 13:03:07;;;;;;;6.78;4.07;;;25.00;98.10;;;;;;5057015;28;20025;-80
2022/09/12 13:05:43;;;;;;;3.58;2.85;;;25.10;97.90;;;;;;5058536;28;20397;-79
2022/09/12 13:08:18;;;;;;;3.40;2.92;;;25.10;98.40;;;;;;5061390;28;20404;-80